createdAt,value
2019-03-21T00:00:44.611Z,46.41
2019-03-21T00:03:12.241Z,46.40
2019-03-21T00:05:39.664Z,46.27
2019-03-21T00:08:07.462Z,46.29
2019-03-21T00:13:32.899Z,45.92
2019-03-21T00:16:00.336Z,45.79
2019-03-21T00:18:27.930Z,45.97
2019-03-21T00:20:56.157Z,46.44
2019-03-21T00:23:24.161Z,46.56
2019-03-21T00:25:51.734Z,46.60
2019-03-21T00:28:19.128Z,46.72
2019-03-21T00:30:46.528Z,46.58
2019-03-21T00:33:13.955Z,46.53
2019-03-21T00:35:41.346Z,46.31
2019-03-21T00:38:08.764Z,46.18
2019-03-21T00:40:37.263Z,46.19
2019-03-21T00:43:04.707Z,46.13
2019-03-21T00:45:32.111Z,46.36
2019-03-21T00:47:59.561Z,46.43
2019-03-21T00:50:27.773Z,46.54
2019-03-21T00:52:55.250Z,46.64
2019-03-21T00:55:22.660Z,46.73
2019-03-21T00:57:50.062Z,46.61
2019-03-21T01:00:26.672Z,46.63
2019-03-21T01:02:54.084Z,46.47
2019-03-21T01:05:21.562Z,46.77
2019-03-21T01:07:48.976Z,46.70
2019-03-21T01:10:31.398Z,46.83
2019-03-21T01:12:58.880Z,47.76
2019-03-21T01:15:26.327Z,47.85
2019-03-21T01:17:53.778Z,48.11
2019-03-21T01:20:21.263Z,48.22
2019-03-21T01:22:48.702Z,48.14
2019-03-21T01:25:32.823Z,48.89
2019-03-21T01:28:00.281Z,48.89
2019-03-21T01:30:27.876Z,48.79
2019-03-21T01:32:55.301Z,49.00
2019-03-21T01:35:22.798Z,49.28
2019-03-21T01:37:50.209Z,49.21
2019-03-21T01:40:21.346Z,49.09
2019-03-21T01:42:49.670Z,49.63
2019-03-21T01:45:24.900Z,50.16
2019-03-21T01:47:53.032Z,49.96
2019-03-21T01:50:20.585Z,49.66
2019-03-21T01:52:48.026Z,49.58
2019-03-21T01:55:15.507Z,49.76
2019-03-21T01:57:42.994Z,50.25
2019-03-21T02:00:11.030Z,50.68
2019-03-21T02:02:38.427Z,50.83
2019-03-21T02:05:05.822Z,51.04
2019-03-21T02:07:33.221Z,51.15
2019-03-21T02:10:00.940Z,51.56
2019-03-21T02:12:28.860Z,51.92
2019-03-21T02:14:56.294Z,51.97
2019-03-21T02:17:23.703Z,52.42
2019-03-21T02:19:51.228Z,52.37
2019-03-21T02:22:18.780Z,52.51
2019-03-21T02:24:46.204Z,52.48
2019-03-21T02:27:13.624Z,52.20
2019-03-21T02:29:41.025Z,51.62
2019-03-21T02:32:08.656Z,51.60
2019-03-21T02:34:36.083Z,52.02
2019-03-21T02:37:03.478Z,51.90
2019-03-21T02:39:30.889Z,52.22
2019-03-21T02:41:58.345Z,51.84
2019-03-21T02:44:25.763Z,51.57
2019-03-21T02:46:53.291Z,51.91
2019-03-21T02:49:20.767Z,52.14
2019-03-21T02:51:48.174Z,52.48
2019-03-21T02:54:15.577Z,52.63
2019-03-21T02:56:43.006Z,52.51
2019-03-21T02:59:10.498Z,52.23
2019-03-21T03:01:37.883Z,52.16
2019-03-21T03:04:05.307Z,52.42
2019-03-21T03:06:32.701Z,52.79
2019-03-21T03:09:00.117Z,52.99
2019-03-21T03:11:27.499Z,52.84
2019-03-21T03:13:54.902Z,52.82
2019-03-21T03:16:22.296Z,52.92
2019-03-21T03:18:49.766Z,52.75
2019-03-21T03:21:17.159Z,52.84
2019-03-21T03:23:44.556Z,53.20
2019-03-21T03:26:11.954Z,53.05
2019-03-21T03:28:43.233Z,53.02
2019-03-21T03:31:10.682Z,53.03
2019-03-21T03:33:38.113Z,52.91
2019-03-21T03:36:05.521Z,53.11
2019-03-21T03:38:33.038Z,53.08
2019-03-21T03:41:02.447Z,53.57
2019-03-21T03:43:29.857Z,53.93
2019-03-21T03:45:57.326Z,54.08
2019-03-21T03:48:24.726Z,53.91
2019-03-21T03:50:52.148Z,53.85
2019-03-21T03:53:19.597Z,54.08
2019-03-21T03:55:47.007Z,54.23
2019-03-21T03:58:15.284Z,54.50
2019-03-21T04:00:42.841Z,54.37
2019-03-21T04:03:10.297Z,54.54
2019-03-21T04:05:39.326Z,54.63
2019-03-21T04:08:06.851Z,54.86
2019-03-21T04:10:38.874Z,54.94
2019-03-21T04:13:06.283Z,55.02
2019-03-21T04:15:33.680Z,54.74
2019-03-21T04:18:01.143Z,55.06
2019-03-21T04:20:30.247Z,55.21
2019-03-21T04:22:57.681Z,55.22
2019-03-21T04:25:28.834Z,55.36
2019-03-21T04:27:56.285Z,55.35
2019-03-21T04:30:23.704Z,55.78
2019-03-21T04:32:51.137Z,55.55
2019-03-21T04:35:18.609Z,55.70
2019-03-21T04:37:46.319Z,55.86
2019-03-21T04:40:13.717Z,55.86
2019-03-21T04:42:41.119Z,56.06
2019-03-21T04:45:11.132Z,55.95
2019-03-21T04:47:38.598Z,55.80
2019-03-21T04:50:06.148Z,56.00
2019-03-21T04:52:33.546Z,55.92
2019-03-21T04:55:00.938Z,56.08
2019-03-21T04:57:28.436Z,55.97
2019-03-21T04:59:55.821Z,56.02
2019-03-21T05:02:23.499Z,55.88
2019-03-21T05:04:50.914Z,56.22
2019-03-21T05:07:18.320Z,56.32
2019-03-21T05:09:45.743Z,56.37
2019-03-21T05:12:13.210Z,56.51
2019-03-21T05:14:40.649Z,56.49
2019-03-21T05:17:08.090Z,56.71
2019-03-21T05:19:35.503Z,56.58
2019-03-21T05:22:02.906Z,56.58
2019-03-21T05:24:30.313Z,56.68
2019-03-21T05:26:57.744Z,56.87
2019-03-21T05:29:25.183Z,56.57
2019-03-21T05:31:53.645Z,56.81
2019-03-21T05:34:21.054Z,56.72
2019-03-21T05:36:50.300Z,56.88
2019-03-21T05:39:15.880Z,56.96
2019-03-21T05:41:43.288Z,57.36
2019-03-21T05:44:13.863Z,57.56
2019-03-21T05:46:41.504Z,57.48
2019-03-21T05:49:08.927Z,57.10
2019-03-21T05:51:36.386Z,56.82
2019-03-21T05:54:03.784Z,56.56
2019-03-21T05:56:31.301Z,56.96
2019-03-21T05:58:59.214Z,56.90
2019-03-21T06:01:26.895Z,56.96
2019-03-21T06:03:54.291Z,56.70
2019-03-21T06:06:23.362Z,56.60
2019-03-21T06:08:50.880Z,56.50
2019-03-21T06:11:18.367Z,56.34
2019-03-21T06:13:45.838Z,56.28
2019-03-21T06:16:13.429Z,56.48
2019-03-21T06:18:46.327Z,56.01
2019-03-21T06:21:17.310Z,55.57
2019-03-21T06:23:44.722Z,55.13
2019-03-21T06:26:21.952Z,54.69
2019-03-21T06:28:49.389Z,54.16
2019-03-21T06:31:16.839Z,53.99
2019-03-21T06:33:44.227Z,53.62
2019-03-21T06:36:11.643Z,53.24
2019-03-21T06:38:39.038Z,52.89
2019-03-21T06:41:06.707Z,52.60
2019-03-21T06:43:34.122Z,52.45
2019-03-21T06:46:01.545Z,52.15
2019-03-21T06:48:31.815Z,51.99
2019-03-21T06:50:59.453Z,51.95
2019-03-21T06:53:27.593Z,51.95
2019-03-21T06:55:54.979Z,51.28
2019-03-21T06:58:23.339Z,51.36
2019-03-21T07:00:50.896Z,51.17
2019-03-21T07:03:18.351Z,51.08
2019-03-21T07:05:45.758Z,50.58
2019-03-21T07:08:13.347Z,50.54
2019-03-21T07:10:40.796Z,50.26
2019-03-21T07:13:08.219Z,50.36
2019-03-21T07:15:35.704Z,50.15
2019-03-21T07:18:03.543Z,50.04
2019-03-21T07:20:30.975Z,49.87
2019-03-21T07:22:58.430Z,49.85
2019-03-21T07:25:25.838Z,49.99
2019-03-21T07:27:53.241Z,50.28
2019-03-21T07:30:20.687Z,50.13
2019-03-21T07:32:48.687Z,49.80
2019-03-21T07:35:16.082Z,49.72
2019-03-21T07:37:43.727Z,49.56
2019-03-21T07:40:12.096Z,48.95
2019-03-21T07:42:39.531Z,47.93
2019-03-21T07:45:06.912Z,47.28
2019-03-21T07:47:34.736Z,47.03
2019-03-21T07:50:02.129Z,46.56
2019-03-21T07:52:29.535Z,46.17
2019-03-21T07:54:57.051Z,45.48
2019-03-21T07:57:24.442Z,44.96
2019-03-21T07:59:51.951Z,44.74
2019-03-21T08:02:19.439Z,44.45
2019-03-21T08:04:46.882Z,44.00
2019-03-21T08:07:14.314Z,44.01
2019-03-21T08:09:41.734Z,43.57
2019-03-21T08:12:09.731Z,43.27
2019-03-21T08:14:37.330Z,42.75
2019-03-21T08:17:04.561Z,42.50
2019-03-21T08:19:32.487Z,42.13
2019-03-21T08:22:00.677Z,41.87
2019-03-21T08:24:28.087Z,41.58
2019-03-21T08:26:55.557Z,41.42
2019-03-21T08:29:22.495Z,41.31
2019-03-21T08:31:49.710Z,41.07
2019-03-21T08:34:17.153Z,41.02
2019-03-21T08:36:44.565Z,40.80
2019-03-21T08:39:12.020Z,40.93
2019-03-21T08:41:39.459Z,40.91
2019-03-21T08:44:06.859Z,41.10
2019-03-21T08:46:34.439Z,41.27
2019-03-21T08:49:02.199Z,41.38
2019-03-21T08:51:29.655Z,41.30
2019-03-21T08:53:57.078Z,41.31
2019-03-21T08:56:24.830Z,41.24
2019-03-21T08:58:52.224Z,41.27
2019-03-21T09:01:19.633Z,41.23
2019-03-21T09:03:47.146Z,41.32
2019-03-21T09:06:15.363Z,41.33
2019-03-21T09:08:42.782Z,41.31
2019-03-21T09:11:09.775Z,41.28
2019-03-21T09:13:36.872Z,41.25
2019-03-21T09:16:03.830Z,40.92
2019-03-21T09:18:31.268Z,40.86
2019-03-21T09:20:58.704Z,40.61
2019-03-21T09:23:26.123Z,40.46
2019-03-21T09:25:53.581Z,40.39
2019-03-21T09:28:21.049Z,40.25
2019-03-21T09:30:50.514Z,40.19
2019-03-21T09:33:15.613Z,40.04
2019-03-21T09:35:42.690Z,39.95
2019-03-21T09:38:09.634Z,39.68
2019-03-21T09:40:37.130Z,39.50
2019-03-21T09:43:04.107Z,39.13
2019-03-21T09:45:31.137Z,39.04
2019-03-21T09:47:58.715Z,38.93
2019-03-21T09:50:25.684Z,39.51
2019-03-21T09:52:52.622Z,39.67
2019-03-21T09:55:19.585Z,40.24
2019-03-21T09:57:46.525Z,39.94
2019-03-21T10:00:13.587Z,39.85
2019-03-21T10:02:41.334Z,40.23
2019-03-21T10:05:08.320Z,39.89
2019-03-21T10:07:35.284Z,39.58
2019-03-21T10:10:02.270Z,38.85
2019-03-21T10:12:29.708Z,38.25
2019-03-21T10:14:57.163Z,38.02
2019-03-21T10:17:24.576Z,37.90
2019-03-21T10:19:52.088Z,37.65
2019-03-21T10:22:19.487Z,37.43
2019-03-21T10:24:47.154Z,37.26
2019-03-21T10:27:14.577Z,36.76
2019-03-21T10:29:41.600Z,36.45
2019-03-21T10:32:14.248Z,36.21
2019-03-21T10:34:35.547Z,36.03
2019-03-21T10:37:02.537Z,35.67
2019-03-21T10:39:29.490Z,35.27
2019-03-21T10:41:56.913Z,35.26
2019-03-21T10:44:24.401Z,34.82
2019-03-21T10:46:51.857Z,34.50
2019-03-21T10:49:19.519Z,34.28
2019-03-21T10:51:54.914Z,34.06
2019-03-21T10:54:13.509Z,33.75
2019-03-21T10:56:40.900Z,33.50
2019-03-21T10:59:07.866Z,33.28
2019-03-21T11:01:34.829Z,32.75
2019-03-21T11:04:01.886Z,32.12
2019-03-21T11:06:29.062Z,32.07
2019-03-21T11:08:56.020Z,31.69
2019-03-21T11:11:23.117Z,31.14
2019-03-21T11:13:50.154Z,30.47
2019-03-21T11:16:17.147Z,29.74
2019-03-21T11:18:44.149Z,29.47
2019-03-21T11:21:11.726Z,30.25
2019-03-21T11:23:39.172Z,29.71
2019-03-21T11:26:06.977Z,28.78
2019-03-21T11:28:33.992Z,28.37
2019-03-21T11:31:01.421Z,27.98
2019-03-21T11:33:29.021Z,27.85
2019-03-21T11:35:56.483Z,27.53
2019-03-21T11:38:23.999Z,27.17
2019-03-21T11:40:50.959Z,27.46
2019-03-21T11:43:17.949Z,28.12
2019-03-21T11:45:47.540Z,28.83
2019-03-21T11:48:12.404Z,28.65
2019-03-21T11:50:40.010Z,28.43
2019-03-21T11:53:07.475Z,27.96
2019-03-21T11:55:34.908Z,28.13
2019-03-21T11:58:02.399Z,28.69
2019-03-21T12:00:36.349Z,28.91
2019-03-21T12:02:57.561Z,28.32
2019-03-21T12:05:25.061Z,28.04
2019-03-21T12:07:52.539Z,27.59
2019-03-21T12:10:19.937Z,26.59
2019-03-21T12:12:47.587Z,26.70
2019-03-21T12:15:15.057Z,27.25
2019-03-21T12:17:42.638Z,27.21
2019-03-21T12:20:10.123Z,26.25
2019-03-21T12:22:37.777Z,25.28
2019-03-21T12:25:04.895Z,24.83
2019-03-21T12:27:31.890Z,25.29
2019-03-21T12:29:58.878Z,25.63
2019-03-21T12:32:26.379Z,25.95
2019-03-21T12:34:53.328Z,26.45
2019-03-21T12:37:20.284Z,26.86
2019-03-21T12:39:47.837Z,26.45
2019-03-21T12:42:15.489Z,26.45
2019-03-21T12:44:42.944Z,26.19
2019-03-21T12:47:10.381Z,25.94
2019-03-21T12:49:37.982Z,26.35
2019-03-21T12:52:05.399Z,26.40
2019-03-21T12:54:32.855Z,26.62
2019-03-21T12:57:00.284Z,26.25
2019-03-21T12:59:27.703Z,25.85
2019-03-21T13:01:55.222Z,26.00
2019-03-21T13:04:22.643Z,26.07
2019-03-21T13:06:50.217Z,26.14
2019-03-21T13:09:17.641Z,25.98
2019-03-21T13:11:46.004Z,25.45
2019-03-21T13:14:13.572Z,25.70
2019-03-21T13:16:41.041Z,25.71
2019-03-21T13:19:08.659Z,25.58
2019-03-21T13:21:36.084Z,25.59
2019-03-21T13:24:03.504Z,25.75
2019-03-21T13:26:30.926Z,25.66
2019-03-21T13:28:58.451Z,25.81
2019-03-21T13:31:25.844Z,25.89
2019-03-21T13:33:54.181Z,26.10
2019-03-21T13:36:21.602Z,26.44
2019-03-21T13:38:48.571Z,26.33
2019-03-21T13:41:16.123Z,26.25
2019-03-21T13:43:43.573Z,26.25
2019-03-21T13:46:11.030Z,26.00
2019-03-21T13:48:38.557Z,25.84
2019-03-21T13:51:06.046Z,25.44
2019-03-21T13:53:33.448Z,25.42
2019-03-21T13:56:00.867Z,24.97
2019-03-21T13:58:29.014Z,24.61
2019-03-21T14:00:56.460Z,24.21
2019-03-21T14:03:25.400Z,24.20
2019-03-21T14:05:51.435Z,24.39
2019-03-21T14:08:18.360Z,24.46
2019-03-21T14:10:45.333Z,24.42
2019-03-21T14:13:12.754Z,23.93
2019-03-21T14:15:40.366Z,23.83
2019-03-21T14:18:07.791Z,23.49
2019-03-21T14:20:35.875Z,22.93
2019-03-21T14:23:03.343Z,23.08
2019-03-21T14:25:30.800Z,23.63
2019-03-21T14:27:58.228Z,23.73
2019-03-21T14:30:25.656Z,24.10
2019-03-21T14:32:53.087Z,23.88
2019-03-21T14:35:20.591Z,23.91
2019-03-21T14:37:47.999Z,23.68
2019-03-21T14:40:15.496Z,23.50
2019-03-21T14:42:43.028Z,23.38
2019-03-21T14:45:10.332Z,23.41
2019-03-21T14:47:37.748Z,23.94
2019-03-21T14:50:05.981Z,23.92
2019-03-21T14:52:33.539Z,24.28
2019-03-21T14:55:01.003Z,24.60
2019-03-21T14:57:28.439Z,24.70
2019-03-21T14:59:55.899Z,24.59
2019-03-21T15:02:23.548Z,24.29
2019-03-21T15:04:51.025Z,24.38
2019-03-21T15:07:18.858Z,24.14
2019-03-21T15:09:46.132Z,24.44
2019-03-21T15:12:13.616Z,24.44
2019-03-21T15:14:41.075Z,24.58
2019-03-21T15:17:08.605Z,23.93
2019-03-21T15:19:36.151Z,24.20
2019-03-21T15:22:03.828Z,24.58
2019-03-21T15:24:31.285Z,24.41
2019-03-21T15:26:58.746Z,24.45
2019-03-21T15:29:26.172Z,24.00
2019-03-21T15:31:53.644Z,23.77
2019-03-21T15:34:21.181Z,23.60
2019-03-21T15:36:48.576Z,23.63
2019-03-21T15:39:16.003Z,23.72
2019-03-21T15:41:43.409Z,23.99
2019-03-21T15:44:10.912Z,24.13
2019-03-21T15:46:39.169Z,24.46
2019-03-21T15:49:07.202Z,24.22
2019-03-21T15:51:34.623Z,23.80
2019-03-21T15:54:02.026Z,23.50
2019-03-21T15:56:29.474Z,23.68
2019-03-21T15:58:56.876Z,23.74
2019-03-21T16:01:24.336Z,23.18
2019-03-21T16:03:51.720Z,23.24
2019-03-21T16:06:19.201Z,23.10
2019-03-21T16:08:46.641Z,23.34
2019-03-21T16:11:14.062Z,23.11
2019-03-21T16:13:41.502Z,23.39
2019-03-21T16:16:09.013Z,23.44
2019-03-21T16:18:37.363Z,23.36
2019-03-21T16:21:06.068Z,23.75
2019-03-21T16:23:32.043Z,24.44
2019-03-21T16:25:59.730Z,24.76
2019-03-21T16:28:27.411Z,25.34
2019-03-21T16:30:54.818Z,25.84
2019-03-21T16:33:22.234Z,26.14
2019-03-21T16:35:50.200Z,26.58
2019-03-21T16:38:17.604Z,26.63
2019-03-21T16:40:45.120Z,26.64
2019-03-21T16:43:12.563Z,26.73
2019-03-21T16:45:40.036Z,26.87
2019-03-21T16:48:09.160Z,27.03
2019-03-21T16:50:34.943Z,27.59
2019-03-21T16:53:02.394Z,27.53
2019-03-21T16:55:29.797Z,27.64
2019-03-21T16:57:57.284Z,28.05
2019-03-21T17:00:24.682Z,28.24
2019-03-21T17:02:52.100Z,28.52
2019-03-21T17:05:22.155Z,28.68
2019-03-21T17:07:47.285Z,28.95
2019-03-21T17:10:15.620Z,28.93
2019-03-21T17:12:43.112Z,29.38
2019-03-21T17:15:10.617Z,29.63
2019-03-21T17:17:38.038Z,30.17
2019-03-21T17:20:05.475Z,30.40
2019-03-21T17:22:33.003Z,30.91
2019-03-21T17:25:00.463Z,31.16
2019-03-21T17:27:27.883Z,31.54
2019-03-21T17:29:55.522Z,31.95
2019-03-21T17:32:22.942Z,32.27
2019-03-21T17:34:50.380Z,32.55
2019-03-21T17:37:17.831Z,32.77
2019-03-21T17:39:45.311Z,33.16
2019-03-21T17:42:12.778Z,33.54
2019-03-21T17:44:40.227Z,33.75
2019-03-21T17:47:07.680Z,34.02
2019-03-21T17:49:35.194Z,34.25
2019-03-21T17:52:02.696Z,34.46
2019-03-21T17:54:40.979Z,34.73
2019-03-21T17:56:57.547Z,35.20
2019-03-21T17:59:24.993Z,35.54
2019-03-21T18:01:52.429Z,35.67
2019-03-21T18:04:19.924Z,36.06
2019-03-21T18:06:47.368Z,36.50
2019-03-21T18:09:14.990Z,36.75
2019-03-21T18:11:42.482Z,36.97
2019-03-21T18:14:09.901Z,37.26
2019-03-21T18:16:37.536Z,37.71
2019-03-21T18:19:04.953Z,38.05
2019-03-21T18:21:32.500Z,38.16
2019-03-21T18:24:00.043Z,38.26
2019-03-21T18:26:27.457Z,38.37
2019-03-21T18:28:54.410Z,38.34
2019-03-21T18:31:21.832Z,38.38
2019-03-21T18:33:49.281Z,38.47
2019-03-21T18:36:16.690Z,38.65
2019-03-21T18:38:56.613Z,39.06
2019-03-21T18:41:11.658Z,38.96
2019-03-21T18:43:39.114Z,39.17
2019-03-21T18:46:06.598Z,39.37
2019-03-21T18:48:34.026Z,39.50
2019-03-21T18:51:01.474Z,39.42
2019-03-21T18:53:28.900Z,39.45
2019-03-21T18:55:56.553Z,39.65
2019-03-21T18:58:23.967Z,39.67
2019-03-21T19:00:51.419Z,39.75
2019-03-21T19:03:18.850Z,39.91
2019-03-21T19:05:46.342Z,40.00
2019-03-21T19:08:13.769Z,40.05
2019-03-21T19:10:41.259Z,40.19
2019-03-21T19:13:08.710Z,40.28
2019-03-21T19:15:36.163Z,40.40
2019-03-21T19:18:03.712Z,40.49
2019-03-21T19:20:31.179Z,40.49
2019-03-21T19:22:58.615Z,40.79
2019-03-21T19:25:26.287Z,41.07
2019-03-21T19:27:53.759Z,41.08
2019-03-21T19:30:21.195Z,41.33
2019-03-21T19:32:48.663Z,41.31
2019-03-21T19:35:16.228Z,41.57
2019-03-21T19:37:43.659Z,41.56
2019-03-21T19:40:13.895Z,41.67
2019-03-21T19:42:41.415Z,41.71
2019-03-21T19:45:10.666Z,42.24
2019-03-21T19:47:38.207Z,42.59
2019-03-21T19:50:06.776Z,42.85
2019-03-21T19:52:33.758Z,42.93
2019-03-21T19:55:01.181Z,42.72
2019-03-21T19:57:29.642Z,42.86
2019-03-21T19:59:57.065Z,42.93
2019-03-21T20:02:24.493Z,42.99
2019-03-21T20:04:51.917Z,42.97
2019-03-21T20:07:19.507Z,42.88
2019-03-21T20:09:47.227Z,42.74
2019-03-21T20:12:14.623Z,42.79
2019-03-21T20:14:42.092Z,42.63
2019-03-21T20:17:09.545Z,42.70
2019-03-21T20:19:36.960Z,42.78
2019-03-21T20:22:04.397Z,42.96
2019-03-21T20:24:31.843Z,43.13
2019-03-21T20:26:59.794Z,43.45
2019-03-21T20:29:27.626Z,43.73
2019-03-21T20:31:55.098Z,43.92
2019-03-21T20:34:22.500Z,44.20
2019-03-21T20:36:49.940Z,44.40
2019-03-21T20:39:17.485Z,44.68
2019-03-21T20:41:45.022Z,45.22
2019-03-21T20:44:15.467Z,45.59
2019-03-21T20:46:39.881Z,45.92
2019-03-21T20:49:07.303Z,46.13
2019-03-21T20:51:34.714Z,46.36
2019-03-21T20:54:02.243Z,46.79
2019-03-21T20:56:29.693Z,47.20
2019-03-21T20:58:57.223Z,47.32
2019-03-21T21:01:24.644Z,47.38
2019-03-21T21:03:52.447Z,47.72
2019-03-21T21:06:20.042Z,47.77
2019-03-21T21:08:46.995Z,47.59
2019-03-21T21:11:14.455Z,47.86
2019-03-21T21:13:41.416Z,48.16
2019-03-21T21:16:08.387Z,48.51
2019-03-21T21:18:35.821Z,48.74
2019-03-21T21:21:03.271Z,48.74
2019-03-21T21:23:30.425Z,48.78
2019-03-21T21:26:05.601Z,48.68
2019-03-21T21:28:24.925Z,48.76
2019-03-21T21:30:53.301Z,48.70
2019-03-21T21:33:20.843Z,48.64
2019-03-21T21:35:48.260Z,48.37
2019-03-21T21:38:15.803Z,48.32
2019-03-21T21:40:43.418Z,48.24
2019-03-21T21:43:10.922Z,48.25
2019-03-21T21:45:38.351Z,48.00
2019-03-21T21:48:05.755Z,47.84
2019-03-21T21:50:33.312Z,47.73
2019-03-21T21:53:02.366Z,47.84
2019-03-21T21:55:30.916Z,48.03
2019-03-21T21:57:58.587Z,48.17
2019-03-21T22:00:25.976Z,48.40
2019-03-21T22:02:53.425Z,48.89
2019-03-21T22:05:21.833Z,49.36
2019-03-21T22:07:49.252Z,49.49
2019-03-21T22:10:16.648Z,49.38
2019-03-21T22:12:44.107Z,49.50
2019-03-21T22:15:11.522Z,49.56
2019-03-21T22:17:39.042Z,49.48
2019-03-21T22:20:06.434Z,49.33
2019-03-21T22:22:34.067Z,49.17
2019-03-21T22:25:01.537Z,49.32
2019-03-21T22:27:29.206Z,49.61
2019-03-21T22:29:57.528Z,49.82
2019-03-21T22:32:25.165Z,49.96
2019-03-21T22:34:52.593Z,50.22
2019-03-21T22:37:20.113Z,50.57
2019-03-21T22:39:47.559Z,50.85
2019-03-21T22:42:15.607Z,51.10
2019-03-21T22:44:43.165Z,51.20
2019-03-21T22:47:10.611Z,51.45
2019-03-21T22:49:38.112Z,51.87
2019-03-21T22:52:05.524Z,51.99
2019-03-21T22:54:32.958Z,52.12
2019-03-21T22:57:00.490Z,52.25
2019-03-21T22:59:28.087Z,52.59
2019-03-21T23:01:55.475Z,52.88
2019-03-21T23:04:22.900Z,53.27
2019-03-21T23:06:51.290Z,53.22
2019-03-21T23:09:18.714Z,53.29
2019-03-21T23:11:46.333Z,52.98
2019-03-21T23:14:13.873Z,52.73
2019-03-21T23:16:41.282Z,52.86
2019-03-21T23:19:08.832Z,52.96
2019-03-21T23:21:36.289Z,53.19
2019-03-21T23:24:03.702Z,53.54
2019-03-21T23:26:31.244Z,53.49
2019-03-21T23:28:58.636Z,53.41
2019-03-21T23:31:26.331Z,53.47
2019-03-21T23:33:53.755Z,53.62
2019-03-21T23:36:21.288Z,53.91
2019-03-21T23:38:49.124Z,54.37
2019-03-21T23:41:16.527Z,54.70
2019-03-21T23:43:43.936Z,54.72
2019-03-21T23:46:11.334Z,54.90
2019-03-21T23:48:38.819Z,55.11
2019-03-21T23:51:06.266Z,55.27
2019-03-21T23:53:33.705Z,55.33
2019-03-21T23:56:01.100Z,55.10
2019-03-21T23:58:28.497Z,54.79
